createdAt,value
2022-11-10T00:00:20.423Z,10.16
2022-11-10T00:03:17.275Z,10.16
2022-11-10T00:06:05.905Z,10.16
2022-11-10T00:08:53.038Z,10.16
2022-11-10T00:11:40.594Z,10.18
2022-11-10T00:14:46.442Z,10.21
2022-11-10T00:17:36.962Z,10.24
2022-11-10T00:20:24.122Z,10.25
2022-11-10T00:23:11.587Z,10.28
2022-11-10T00:25:59.505Z,10.30
2022-11-10T00:28:46.646Z,10.34
2022-11-10T00:31:33.527Z,10.36
2022-11-10T00:34:20.764Z,10.39
2022-11-10T00:37:08.016Z,10.40
2022-11-10T00:39:55.956Z,10.40
2022-11-10T00:42:43.132Z,10.40
2022-11-10T00:45:30.474Z,10.37
2022-11-10T00:48:17.710Z,10.35
2022-11-10T00:51:06.031Z,10.36
2022-11-10T00:53:53.771Z,10.37
2022-11-10T00:56:41.398Z,10.38
2022-11-10T00:59:28.858Z,10.38
2022-11-10T01:02:15.989Z,10.39
2022-11-10T01:05:02.730Z,10.38
2022-11-10T01:07:50.006Z,10.37
2022-11-10T01:10:37.075Z,10.36
2022-11-10T01:13:24.836Z,10.36
2022-11-10T01:16:15.368Z,10.37
2022-11-10T01:19:03.656Z,10.39
2022-11-10T01:21:52.443Z,10.43
2022-11-10T01:24:39.948Z,10.45
2022-11-10T01:27:26.912Z,10.45
2022-11-10T01:30:14.369Z,10.39
2022-11-10T01:33:01.694Z,10.40
2022-11-10T01:35:48.893Z,10.43
2022-11-10T01:38:37.984Z,10.44
2022-11-10T01:41:25.332Z,10.42
2022-11-10T01:44:23.023Z,10.43
2022-11-10T01:47:10.066Z,10.41
2022-11-10T01:49:57.084Z,10.38
2022-11-10T01:52:48.629Z,10.36
2022-11-10T01:55:39.159Z,10.36
2022-11-10T01:58:32.044Z,10.37
2022-11-10T02:01:20.268Z,10.37
2022-11-10T02:04:13.383Z,10.34
2022-11-10T02:07:00.781Z,10.32
2022-11-10T02:09:48.648Z,10.30
2022-11-10T02:12:38.925Z,10.29
2022-11-10T02:15:27.169Z,10.31
2022-11-10T02:18:14.591Z,10.33
2022-11-10T09:32:34.549Z,13.44
2022-11-10T09:46:35.515Z,13.85
2022-11-10T09:49:39.834Z,13.78
2022-11-10T09:52:31.680Z,13.50
2022-11-10T09:55:30.659Z,13.27
2022-11-10T09:58:20.399Z,13.07
2022-11-10T10:02:09.920Z,12.90
2022-11-10T10:05:31.804Z,12.77
2022-11-10T10:08:54.516Z,12.80
2022-11-10T10:12:09.118Z,12.86
2022-11-10T10:15:25.676Z,12.93
2022-11-10T10:18:22.316Z,13.10
2022-11-10T10:21:21.845Z,13.43
2022-11-10T10:24:21.473Z,13.63
2022-11-10T10:27:21.279Z,13.74
2022-11-10T10:30:14.681Z,13.74
2022-11-10T10:33:13.388Z,13.70
2022-11-10T10:36:08.518Z,13.72
2022-11-10T10:39:12.169Z,13.60
2022-11-10T10:41:59.860Z,13.41
2022-11-10T10:45:21.497Z,13.27
2022-11-10T10:48:30.059Z,13.11
2022-11-10T10:51:29.883Z,12.96
2022-11-10T10:54:35.446Z,12.84
2022-11-10T10:57:30.438Z,12.73
2022-11-10T11:00:24.062Z,12.70
2022-11-10T11:03:39.410Z,12.70
2022-11-10T11:06:29.509Z,13.11
2022-11-10T11:09:26.221Z,13.68
2022-11-10T11:12:20.283Z,14.09
2022-11-10T11:15:16.727Z,14.34
2022-11-10T11:18:13.403Z,14.29
2022-11-10T11:21:24.591Z,14.23
2022-11-10T11:24:53.583Z,14.23
2022-11-10T11:28:04.260Z,14.20
2022-11-10T11:31:10.092Z,13.96
2022-11-10T11:34:13.004Z,13.78
2022-11-10T11:37:23.758Z,13.96
2022-11-10T11:40:30.122Z,14.63
2022-11-10T11:43:47.188Z,14.97
2022-11-10T11:46:44.951Z,14.82
2022-11-10T11:49:47.483Z,14.56
2022-11-10T11:52:44.659Z,14.26
2022-11-10T11:56:05.822Z,14.10
2022-11-10T11:59:13.143Z,13.96
2022-11-10T12:02:57.777Z,14.05
2022-11-10T12:06:03.330Z,14.04
2022-11-10T12:09:03.160Z,13.97
2022-11-10T12:12:16.139Z,13.92
2022-11-10T12:15:20.605Z,14.59
2022-11-10T12:18:28.424Z,16.14
2022-11-10T16:23:53.345Z,12.14
2022-11-10T16:26:39.726Z,12.00
2022-11-10T16:29:25.767Z,11.87
2022-11-10T16:32:12.234Z,11.76
2022-11-10T16:34:57.921Z,11.62
2022-11-10T16:37:43.498Z,11.48
2022-11-10T16:40:29.797Z,11.35
2022-11-10T16:43:16.637Z,11.25
2022-11-10T16:46:05.287Z,11.18
2022-11-10T16:48:54.925Z,11.11
2022-11-10T16:51:48.296Z,11.06
2022-11-10T16:54:35.085Z,10.99
2022-11-10T16:57:20.697Z,10.91
2022-11-10T17:00:08.163Z,10.86
2022-11-10T17:03:03.027Z,10.84
2022-11-10T17:05:49.425Z,10.82
2022-11-10T17:08:35.560Z,10.79
2022-11-10T17:11:21.468Z,10.77
2022-11-10T17:14:10.330Z,10.75
2022-11-10T17:16:56.492Z,10.75
2022-11-10T17:19:42.545Z,10.75
2022-11-10T17:22:31.506Z,10.75
2022-11-10T17:25:29.591Z,10.75
2022-11-10T17:28:17.174Z,10.71
2022-11-10T17:31:03.069Z,10.68
2022-11-10T17:33:48.995Z,10.64
2022-11-10T17:36:34.710Z,10.63
2022-11-10T17:39:21.999Z,10.61
2022-11-10T17:42:13.052Z,10.58
2022-11-10T17:44:59.518Z,10.53
2022-11-10T17:47:45.975Z,10.55
2022-11-10T17:50:32.865Z,10.58
2022-11-10T17:53:22.430Z,10.61
2022-11-10T17:56:09.282Z,10.64
2022-11-10T17:58:55.510Z,10.65
2022-11-10T18:01:41.499Z,10.64
2022-11-10T18:04:27.317Z,10.65
2022-11-10T18:07:13.224Z,10.66
2022-11-10T18:09:58.870Z,10.66
2022-11-10T18:12:45.147Z,10.67
2022-11-10T18:15:30.947Z,10.69
2022-11-10T18:18:17.692Z,10.68
2022-11-10T18:21:05.225Z,10.67
2022-11-10T18:23:51.572Z,10.68
2022-11-10T18:26:37.751Z,10.69
2022-11-10T18:29:23.946Z,10.69
2022-11-10T18:32:09.611Z,10.69
2022-11-10T18:34:55.226Z,10.69
2022-11-10T18:37:40.729Z,10.65
2022-11-10T18:40:26.653Z,10.56
2022-11-10T18:43:12.473Z,10.51
2022-11-10T18:45:58.556Z,10.45
2022-11-10T18:48:45.461Z,10.38
2022-11-10T18:51:31.874Z,10.33
2022-11-10T18:54:17.650Z,10.33
2022-11-10T18:57:03.838Z,10.34
2022-11-10T18:59:49.686Z,10.27
2022-11-10T19:02:35.931Z,10.16
2022-11-10T19:05:21.657Z,10.11
2022-11-10T19:08:08.162Z,10.12
2022-11-10T19:10:55.582Z,10.16
2022-11-10T19:13:42.357Z,10.16
2022-11-10T19:16:29.715Z,10.13
2022-11-10T19:19:16.191Z,10.15
2022-11-10T19:22:02.314Z,10.16
2022-11-10T19:25:06.998Z,10.16
2022-11-10T19:27:55.896Z,10.16
2022-11-10T19:30:41.795Z,10.16
2022-11-10T19:33:29.729Z,10.15
2022-11-10T19:36:21.858Z,10.13
2022-11-10T19:39:09.851Z,10.14
2022-11-10T19:41:55.975Z,10.12
2022-11-10T19:44:41.837Z,10.08
2022-11-10T19:47:29.722Z,10.04
2022-11-10T19:50:16.121Z,10.02
2022-11-10T19:53:02.036Z,10.03
2022-11-10T19:55:48.254Z,10.04
2022-11-10T19:58:37.548Z,10.07
2022-11-10T20:01:23.977Z,10.08
2022-11-10T20:04:11.915Z,10.12
2022-11-10T20:07:16.385Z,10.10
2022-11-10T20:10:02.843Z,10.08
2022-11-10T20:12:49.184Z,10.06
2022-11-10T20:15:42.154Z,10.07
2022-11-10T20:18:28.081Z,10.07
2022-11-10T20:21:17.142Z,10.09
2022-11-10T20:24:06.624Z,10.11
2022-11-10T20:26:52.408Z,10.06
2022-11-10T20:29:39.018Z,10.02
2022-11-10T20:32:26.207Z,10.03
2022-11-10T20:35:12.442Z,10.06
2022-11-10T20:37:58.270Z,10.12
2022-11-10T20:40:45.177Z,10.12
2022-11-10T20:43:35.777Z,10.11
2022-11-10T20:46:40.722Z,10.15
2022-11-10T20:49:28.808Z,10.16
2022-11-10T20:52:14.917Z,10.17
2022-11-10T20:55:01.247Z,10.16
2022-11-10T20:57:47.954Z,10.15
2022-11-10T21:00:33.607Z,10.15
2022-11-10T21:03:20.973Z,10.14
2022-11-10T21:06:08.337Z,10.15
2022-11-10T21:08:55.812Z,10.19
2022-11-10T21:12:00.743Z,10.20
2022-11-10T21:14:46.936Z,10.22
2022-11-10T21:17:32.735Z,10.20
2022-11-10T21:20:18.609Z,10.18
2022-11-10T21:23:04.280Z,10.15
2022-11-10T21:25:58.831Z,10.06
2022-11-10T21:28:44.701Z,10.05
2022-11-10T21:31:30.949Z,10.05
2022-11-10T21:34:16.783Z,10.05
2022-11-10T21:37:03.677Z,10.04
2022-11-10T21:39:49.635Z,10.02
2022-11-10T21:42:35.828Z,10.04
2022-11-10T21:45:22.362Z,10.04
2022-11-10T21:48:08.618Z,10.05
2022-11-10T21:51:06.451Z,9.99
2022-11-10T21:53:52.336Z,9.95
2022-11-10T21:56:41.225Z,9.96
2022-11-10T21:59:27.475Z,10.04
2022-11-10T22:02:14.519Z,10.08
2022-11-10T22:05:00.436Z,10.10
2022-11-10T22:07:46.020Z,10.10
2022-11-10T22:10:50.749Z,10.11
2022-11-10T22:13:55.684Z,10.11
2022-11-10T22:17:06.845Z,10.15
2022-11-10T22:19:53.738Z,10.20
2022-11-10T22:22:39.431Z,10.24
2022-11-10T22:25:25.255Z,10.29
2022-11-10T22:28:10.863Z,10.35
2022-11-10T22:30:57.091Z,10.36
2022-11-10T22:33:42.862Z,10.33
2022-11-10T22:36:29.153Z,10.34
2022-11-10T22:39:15.922Z,10.36
2022-11-10T22:42:31.603Z,10.38
2022-11-10T22:45:17.055Z,10.44
2022-11-10T22:48:22.431Z,10.49
2022-11-10T22:51:08.308Z,10.52
2022-11-10T22:53:54.068Z,10.54
2022-11-10T22:56:40.639Z,10.54
2022-11-10T22:59:26.958Z,10.57
2022-11-10T23:02:12.766Z,10.57
2022-11-10T23:04:58.833Z,10.62
2022-11-10T23:07:44.887Z,10.68
2022-11-10T23:10:31.460Z,10.68
2022-11-10T23:13:17.127Z,10.68
2022-11-10T23:16:06.027Z,10.68
2022-11-10T23:18:53.196Z,10.66
2022-11-10T23:21:39.238Z,10.68
2022-11-10T23:24:24.985Z,10.70
2022-11-10T23:27:11.086Z,10.73
2022-11-10T23:29:56.718Z,10.72
2022-11-10T23:32:42.514Z,10.72
2022-11-10T23:35:28.120Z,10.73
2022-11-10T23:38:14.375Z,10.72
2022-11-10T23:41:01.652Z,10.64
2022-11-10T23:43:47.565Z,10.64
2022-11-10T23:46:33.555Z,10.64
2022-11-10T23:49:19.602Z,10.68
2022-11-10T23:52:05.511Z,10.75
2022-11-10T23:54:51.777Z,10.75
2022-11-10T23:57:37.744Z,10.72
